KFMY/FMY METAR and TAF weather

Enter ICAO airport designator
Station Type Date Time Source
KFMY METAR 2019/12/07 16:53 UTC NOAA

KFMY 071653Z VRB05KT 10SM FEW120 24/12 A3015 RMK AO2 SLP211 T02390117 $


Station Type Date Time Source
KFMY Decoded METAR 2019/12/07 16:53 UTC NOAA

FORT MYERS PAGE FIELD, FL, United States (KFMY) 26-35N 081-52W 4M
Dec 07, 2019 - 11:53 AM EST / 2019.12.07 1653 UTC
Wind: Variable at 6 MPH (5 KT):0
Visibility: 10 mile(s):0
Sky conditions: mostly clear
Temperature: 75.0 F (23.9 C)
Dew Point: 53.1 F (11.7 C)
Relative Humidity: 46%
Pressure (altimeter): 30.15 in. Hg (1020 hPa)
ob: KFMY 071653Z VRB05KT 10SM FEW120 24/12 A3015 RMK AO2 SLP211 T02390117
cycle: 17

Station Type Date Time Source
KFMY TAF 2019/12/07 18:24 UTC NOAA

TAF KFMY 071721Z 0718/0818 05005KT P6SM SCT100
FM072000 32005KT P6SM BKN100
FM080200 06003KT P6SM BKN100
FM081500 10007KT P6SM SCT030 SCT100

Example: see airport list